Time;durP1;ratioP1;P1;durP2;ratioP2;P2;SDS_P1;SDS_P2;PMS_P1;PMS_P2;Temp;Humidity;BMP_temperature;BMP_pressure;BME280_temperature;BME280_humidity;BME280_pressure;Samples;Min_cycle;Max_cycle;Signal;HPM_P1;HPM_P2
2021/05/25 00:01:22;;;;;;;1.70;1.30;;;7.80;99.90;;;;;;5045544;28;20168;-53
2021/05/25 00:03:48;;;;;;;3.53;1.20;;;7.70;99.90;;;;;;5041119;28;20452;-56
2021/05/25 00:06:14;;;;;;;4.80;1.47;;;7.70;99.90;;;;;;5029046;28;20470;-55
2021/05/25 00:08:40;;;;;;;1.73;1.60;;;7.70;99.90;;;;;;5026733;28;20531;-55
2021/05/25 00:11:06;;;;;;;3.80;1.60;;;7.70;99.90;;;;;;5014597;28;20176;-55
2021/05/25 00:13:32;;;;;;;3.80;1.30;;;7.70;99.90;;;;;;5013799;28;20594;-55
2021/05/25 00:15:58;;;;;;;2.37;1.50;;;7.70;99.90;;;;;;5040319;28;20476;-55
2021/05/25 00:18:24;;;;;;;3.63;1.60;;;7.70;99.90;;;;;;5022551;28;20426;-55
2021/05/25 00:20:50;;;;;;;3.93;1.30;;;7.70;99.90;;;;;;5012335;28;20534;-56
2021/05/25 00:23:16;;;;;;;1.17;1.10;;;7.70;99.40;;;;;;5037226;28;20754;-56
2021/05/25 00:25:42;;;;;;;1.17;1.00;;;7.60;99.30;;;;;;5043388;28;20536;-56
2021/05/25 00:28:08;;;;;;;2.60;1.37;;;7.60;99.90;;;;;;5029384;28;20198;-54
2021/05/25 00:30:34;;;;;;;2.30;1.10;;;7.60;99.90;;;;;;5026929;28;20798;-56
2021/05/25 00:32:59;;;;;;;2.50;1.17;;;7.60;99.90;;;;;;5030691;28;20431;-55
2021/05/25 00:35:28;;;;;;;1.40;1.30;;;7.60;99.90;;;;;;5032993;28;20678;-55
2021/05/25 00:37:55;;;;;;;2.00;1.10;;;7.60;99.90;;;;;;5048784;28;20236;-56
2021/05/25 00:40:21;;;;;;;2.53;1.27;;;7.60;99.90;;;;;;5027593;28;20495;-55
2021/05/25 00:42:47;;;;;;;2.50;1.00;;;7.50;99.90;;;;;;5034393;28;20611;-56
2021/05/25 00:45:14;;;;;;;5.13;1.30;;;7.50;99.90;;;;;;5046641;28;20461;-56
2021/05/25 00:47:41;;;;;;;3.30;1.20;;;7.50;99.90;;;;;;5012434;28;20946;-55
2021/05/25 00:50:10;;;;;;;5.23;1.30;;;7.50;99.90;;;;;;5040693;28;20431;-55
2021/05/25 00:52:41;;;;;;;2.27;1.13;;;7.50;99.90;;;;;;5029276;28;20472;-56
2021/05/25 00:55:09;;;;;;;1.20;1.10;;;7.40;99.90;;;;;;5030227;28;20422;-57
2021/05/25 00:57:36;;;;;;;3.73;1.13;;;7.40;99.90;;;;;;5015807;28;20442;-55
2021/05/25 01:00:04;;;;;;;1.60;1.50;;;7.40;99.90;;;;;;5047302;28;20422;-55
2021/05/25 01:02:31;;;;;;;2.30;1.10;;;7.40;99.90;;;;;;5030189;28;20425;-55
2021/05/25 01:04:57;;;;;;;3.60;1.07;;;7.40;99.90;;;;;;5030355;28;20425;-56
2021/05/25 01:07:23;;;;;;;2.73;1.20;;;7.30;99.90;;;;;;5047733;28;20557;-55
2021/05/25 01:09:48;;;;;;;4.97;1.40;;;7.30;99.90;;;;;;5049323;28;20540;-55
2021/05/25 01:12:14;;;;;;;1.63;1.13;;;7.30;99.90;;;;;;5047681;28;20223;-55
2021/05/25 01:14:46;;;;;;;2.57;1.13;;;7.20;99.90;;;;;;5046338;28;20254;-55
2021/05/25 01:17:12;;;;;;;1.40;1.10;;;7.20;99.90;;;;;;5040089;28;20282;-55
2021/05/25 01:19:38;;;;;;;1.40;1.20;;;7.10;99.90;;;;;;5039799;28;20855;-55
2021/05/25 01:22:04;;;;;;;1.40;1.10;;;7.10;99.90;;;;;;5037758;28;20168;-55
2021/05/25 01:24:31;;;;;;;3.27;1.40;;;7.00;99.90;;;;;;5044528;28;20452;-55
2021/05/25 01:27:05;;;;;;;1.37;1.27;;;7.00;99.90;;;;;;5046707;28;20267;-55
2021/05/25 01:29:31;;;;;;;3.80;1.40;;;7.00;99.90;;;;;;5012784;28;20474;-55
2021/05/25 01:31:57;;;;;;;1.53;1.20;;;7.00;99.90;;;;;;5039848;28;20922;-55
2021/05/25 01:34:23;;;;;;;4.60;1.20;;;7.00;99.90;;;;;;5045481;28;20502;-55
2021/05/25 01:36:48;;;;;;;2.23;1.40;;;6.90;99.90;;;;;;5025460;28;20196;-55
2021/05/25 01:39:15;;;;;;;1.27;1.10;;;7.00;99.90;;;;;;5038217;28;20416;-56
2021/05/25 01:41:41;;;;;;;2.00;1.33;;;6.90;99.90;;;;;;5036932;28;20178;-55
2021/05/25 01:44:06;;;;;;;8.30;1.50;;;6.90;99.90;;;;;;5041602;28;20454;-55
2021/05/25 01:46:32;;;;;;;2.20;1.07;;;6.80;99.90;;;;;;5039640;28;20227;-55
2021/05/25 01:48:58;;;;;;;1.30;1.20;;;6.80;99.90;;;;;;5046492;28;20414;-55
2021/05/25 01:51:24;;;;;;;1.63;1.17;;;6.80;99.90;;;;;;5046628;28;20861;-55
2021/05/25 01:53:49;;;;;;;1.87;1.40;;;6.80;99.90;;;;;;5029275;28;20628;-55
2021/05/25 01:56:18;;;;;;;1.43;1.03;;;6.80;99.90;;;;;;5032496;28;20207;-55
2021/05/25 01:58:44;;;;;;;1.10;1.10;;;6.70;99.90;;;;;;5029613;28;20230;-55
2021/05/25 02:01:11;;;;;;;1.20;1.10;;;6.70;99.90;;;;;;5027977;28;20401;-55
2021/05/25 02:03:39;;;;;;;2.67;1.20;;;6.70;99.90;;;;;;5039966;28;20763;-55
2021/05/25 02:06:09;;;;;;;2.60;1.20;;;6.70;99.90;;;;;;5045767;28;20540;-58
2021/05/25 02:08:36;;;;;;;2.30;1.57;;;6.60;99.90;;;;;;5029679;28;20413;-54
2021/05/25 02:11:04;;;;;;;1.67;1.50;;;6.60;99.90;;;;;;5048031;28;20488;-54
2021/05/25 02:13:31;;;;;;;2.57;1.43;;;6.50;99.90;;;;;;5036512;28;20418;-55
2021/05/25 02:16:04;;;;;;;8.27;1.57;;;6.60;99.90;;;;;;5042622;28;20747;-55
2021/05/25 02:18:36;;;;;;;4.97;1.67;;;6.60;99.90;;;;;;5048327;28;20410;-55
2021/05/25 02:21:06;;;;;;;2.10;1.30;;;6.50;99.90;;;;;;5044273;28;20504;-54
2021/05/25 02:23:32;;;;;;;3.73;1.53;;;6.60;99.90;;;;;;5027713;28;20458;-54
2021/05/25 02:25:58;;;;;;;2.77;1.43;;;6.50;99.90;;;;;;5036335;28;20445;-55
2021/05/25 02:28:25;;;;;;;4.13;1.20;;;6.50;99.90;;;;;;5047027;28;20414;-54
2021/05/25 02:30:51;;;;;;;5.03;1.70;;;6.50;99.90;;;;;;5031841;28;21027;-55
2021/05/25 02:33:21;;;;;;;3.20;1.40;;;6.50;99.90;;;;;;5044510;28;20413;-54
2021/05/25 02:35:50;;;;;;;3.90;1.90;;;6.50;99.90;;;;;;5045864;28;20788;-55
2021/05/25 02:38:16;;;;;;;3.03;1.57;;;6.50;99.90;;;;;;5042918;28;20445;-54
2021/05/25 02:40:46;;;;;;;4.80;1.67;;;6.50;99.90;;;;;;5040879;28;20433;-55
2021/05/25 02:43:14;;;;;;;2.30;1.40;;;6.40;99.90;;;;;;5035652;28;20516;-55
2021/05/25 02:45:39;;;;;;;4.10;1.27;;;6.40;99.90;;;;;;5037027;28;20990;-55
2021/05/25 02:48:06;;;;;;;3.03;1.53;;;6.40;99.90;;;;;;5045677;28;20505;-55
2021/05/25 02:50:32;;;;;;;5.43;1.80;;;6.40;99.90;;;;;;5042966;28;20531;-54
2021/05/25 02:52:58;;;;;;;2.20;1.63;;;6.30;99.90;;;;;;5046833;28;20421;-54
2021/05/25 02:55:31;;;;;;;3.67;1.90;;;6.30;99.90;;;;;;5046877;28;20421;-55
2021/05/25 02:57:58;;;;;;;3.57;1.53;;;6.30;99.90;;;;;;5038483;28;20427;-54
2021/05/25 03:00:27;;;;;;;2.57;1.30;;;6.30;99.90;;;;;;5044658;28;20413;-54
2021/05/25 03:02:53;;;;;;;1.93;1.67;;;6.30;99.90;;;;;;5045558;28;20432;-55
2021/05/25 03:05:23;;;;;;;5.00;2.17;;;6.30;99.90;;;;;;5027134;28;20428;-54
2021/05/25 03:07:50;;;;;;;4.33;2.40;;;6.20;99.90;;;;;;5043564;28;20432;-54
2021/05/25 03:10:18;;;;;;;2.60;1.80;;;6.20;99.90;;;;;;5040822;28;20472;-54
2021/05/25 03:12:44;;;;;;;6.60;2.20;;;6.10;99.90;;;;;;5032383;28;20463;-54
2021/05/25 03:15:14;;;;;;;2.57;1.80;;;6.10;99.90;;;;;;5035743;28;20429;-56
2021/05/25 03:17:40;;;;;;;2.87;1.93;;;6.10;99.90;;;;;;5044579;28;20414;-54
2021/05/25 03:20:07;;;;;;;7.47;1.90;;;6.00;99.90;;;;;;5027606;28;20796;-54
2021/05/25 03:22:33;;;;;;;3.90;1.90;;;6.00;99.90;;;;;;5030142;28;20167;-54
2021/05/25 03:24:59;;;;;;;6.13;1.93;;;6.00;99.90;;;;;;5041729;28;20484;-55
2021/05/25 03:27:28;;;;;;;3.80;1.60;;;6.00;99.90;;;;;;5046606;28;20431;-55
2021/05/25 03:29:53;;;;;;;3.73;1.47;;;6.00;99.90;;;;;;5047216;28;20952;-55
2021/05/25 03:32:19;;;;;;;4.43;2.00;;;6.00;99.90;;;;;;5025126;28;20431;-54
2021/05/25 03:34:45;;;;;;;6.77;1.87;;;6.00;99.90;;;;;;5027273;28;20164;-55
2021/05/25 03:37:10;;;;;;;5.37;1.80;;;6.00;99.90;;;;;;5028939;28;20196;-54
2021/05/25 03:39:36;;;;;;;5.30;1.53;;;6.00;99.90;;;;;;5044146;28;20353;-54
2021/05/25 03:42:02;;;;;;;3.30;1.70;;;6.10;99.90;;;;;;5034876;28;20568;-54
2021/05/25 03:44:28;;;;;;;13.13;1.77;;;6.10;99.90;;;;;;5047516;28;20262;-55
2021/05/25 03:46:54;;;;;;;5.13;1.53;;;6.10;99.90;;;;;;5029250;28;20193;-54
2021/05/25 03:49:20;;;;;;;5.60;1.47;;;6.10;99.90;;;;;;5045019;28;20341;-54
2021/05/25 03:51:46;;;;;;;4.93;1.97;;;6.20;99.90;;;;;;5038400;28;21156;-55
2021/05/25 03:54:25;;;;;;;7.27;1.97;;;6.20;99.90;;;;;;5049938;28;20179;-57
2021/05/25 03:59:46;;;;;;;7.27;1.50;;;6.30;99.60;;;;;;5004511;28;20590;-55
2021/05/25 04:02:11;;;;;;;4.53;1.50;;;6.30;99.90;;;;;;5047341;28;20551;-55
2021/05/25 04:04:37;;;;;;;3.77;1.53;;;6.30;99.90;;;;;;5048662;28;20218;-54
2021/05/25 04:07:03;;;;;;;4.93;1.67;;;6.40;99.90;;;;;;5044202;28;20210;-54
2021/05/25 04:09:28;;;;;;;2.40;1.63;;;6.30;99.90;;;;;;5043903;28;20547;-54
2021/05/25 04:11:54;;;;;;;7.93;1.47;;;6.30;99.90;;;;;;5044229;28;20763;-54
2021/05/25 04:14:20;;;;;;;9.80;1.70;;;6.30;99.90;;;;;;5030828;28;20183;-54
2021/05/25 04:16:45;;;;;;;4.63;1.90;;;6.30;99.90;;;;;;5048756;28;20202;-54
2021/05/25 04:19:11;;;;;;;8.97;1.67;;;6.30;99.90;;;;;;5037053;28;20250;-55
2021/05/25 04:21:36;;;;;;;6.50;2.07;;;6.30;99.90;;;;;;5046263;28;20275;-53
2021/05/25 04:24:03;;;;;;;2.07;1.40;;;6.30;99.90;;;;;;5036766;28;20341;-54
2021/05/25 04:26:29;;;;;;;5.33;1.93;;;6.30;99.90;;;;;;5040070;28;20278;-56
2021/05/25 04:28:54;;;;;;;6.60;1.90;;;6.30;99.90;;;;;;5047194;28;21024;-56
2021/05/25 04:31:20;;;;;;;7.27;1.63;;;6.30;99.90;;;;;;5024549;28;20262;-56
2021/05/25 04:33:46;;;;;;;4.50;1.73;;;6.30;99.90;;;;;;5045184;28;20174;-53
2021/05/25 04:36:11;;;;;;;8.40;1.93;;;6.30;99.90;;;;;;5038607;28;20253;-55
2021/05/25 04:38:37;;;;;;;4.93;1.67;;;6.40;99.90;;;;;;5042012;28;20179;-57
2021/05/25 04:41:02;;;;;;;6.83;1.97;;;6.40;99.90;;;;;;5047835;28;20204;-54
2021/05/25 04:43:28;;;;;;;6.80;1.90;;;6.40;99.90;;;;;;5026989;28;20601;-54
2021/05/25 04:45:54;;;;;;;6.87;1.97;;;6.40;99.90;;;;;;5037629;28;20211;-54
2021/05/25 04:48:20;;;;;;;4.40;1.60;;;6.40;99.90;;;;;;5043718;28;20781;-54
2021/05/25 04:50:46;;;;;;;7.77;1.60;;;6.40;99.90;;;;;;5045296;28;20199;-54
2021/05/25 04:53:11;;;;;;;7.10;2.10;;;6.40;99.90;;;;;;5023776;28;20462;-55
2021/05/25 04:55:37;;;;;;;2.10;1.80;;;6.40;99.90;;;;;;5043483;28;20196;-54
2021/05/25 04:58:04;;;;;;;3.40;1.77;;;6.40;99.90;;;;;;5023468;28;20233;-56
2021/05/25 05:00:29;;;;;;;1.67;1.47;;;6.40;99.90;;;;;;5047906;28;20483;-55
2021/05/25 05:02:56;;;;;;;1.80;1.70;;;6.50;99.90;;;;;;5042573;28;20429;-53
2021/05/25 05:05:24;;;;;;;6.50;2.00;;;6.50;99.90;;;;;;5037805;28;20345;-55
2021/05/25 05:07:49;;;;;;;4.80;1.60;;;6.60;99.90;;;;;;5040577;28;20428;-54
2021/05/25 05:10:16;;;;;;;4.30;1.70;;;6.60;99.90;;;;;;5049324;28;20496;-54
2021/05/25 05:12:42;;;;;;;2.67;1.90;;;6.70;99.90;;;;;;5017888;28;20183;-55
2021/05/25 05:15:09;;;;;;;4.23;1.63;;;6.70;99.90;;;;;;5048523;28;20835;-55
2021/05/25 05:17:35;;;;;;;6.20;1.80;;;6.80;99.90;;;;;;5047678;28;20190;-55
2021/05/25 05:20:03;;;;;;;5.20;1.63;;;6.80;99.90;;;;;;5047054;28;20408;-54
2021/05/25 05:22:29;;;;;;;5.60;1.60;;;6.90;99.90;;;;;;5047826;28;20432;-54
2021/05/25 05:24:55;;;;;;;4.53;1.50;;;6.90;99.90;;;;;;5030696;28;20442;-54
2021/05/25 05:27:21;;;;;;;3.20;1.77;;;7.00;99.90;;;;;;5043748;28;20365;-55
2021/05/25 05:29:46;;;;;;;3.50;1.90;;;7.10;99.90;;;;;;5048369;28;20679;-54
2021/05/25 05:32:12;;;;;;;4.80;2.20;;;7.20;99.90;;;;;;5046645;28;20504;-54
2021/05/25 05:34:38;;;;;;;7.00;2.07;;;7.20;99.90;;;;;;5048415;28;20229;-54
2021/05/25 05:37:04;;;;;;;2.53;1.87;;;7.30;99.90;;;;;;5048172;28;20521;-54
2021/05/25 05:39:29;;;;;;;4.30;1.70;;;7.40;99.90;;;;;;5025534;28;20664;-55
2021/05/25 05:41:55;;;;;;;11.10;1.83;;;7.40;99.90;;;;;;5047177;28;20471;-54
2021/05/25 05:44:21;;;;;;;2.80;1.80;;;7.50;98.80;;;;;;5047795;28;20206;-54
2021/05/25 05:46:47;;;;;;;7.30;1.70;;;7.50;98.70;;;;;;5044932;28;20566;-55
2021/05/25 05:49:12;;;;;;;3.47;1.47;;;7.50;98.30;;;;;;5042774;28;20202;-53
2021/05/25 05:51:38;;;;;;;7.10;1.97;;;7.50;97.90;;;;;;5028018;28;20171;-57
2021/05/25 05:54:04;;;;;;;6.80;1.90;;;7.50;98.20;;;;;;5048204;28;20174;-55
2021/05/25 05:56:29;;;;;;;6.10;1.97;;;7.50;97.60;;;;;;5042517;28;20215;-55
2021/05/25 05:58:55;;;;;;;5.47;2.20;;;7.50;96.90;;;;;;5047069;28;20176;-55
2021/05/25 06:01:21;;;;;;;4.17;1.67;;;7.40;97.50;;;;;;5046899;28;20587;-55
2021/05/25 06:03:47;;;;;;;2.70;1.83;;;7.50;97.80;;;;;;5046143;28;20274;-55
2021/05/25 06:06:13;;;;;;;5.60;1.67;;;7.50;98.20;;;;;;5046747;28;20465;-56
2021/05/25 06:08:40;;;;;;;6.47;1.73;;;7.50;98.00;;;;;;5048189;28;20402;-55
2021/05/25 06:11:07;;;;;;;4.07;1.60;;;7.50;97.70;;;;;;5047392;28;20792;-52
2021/05/25 06:13:33;;;;;;;2.50;1.60;;;7.50;97.80;;;;;;5028190;28;21029;-55
2021/05/25 06:16:02;;;;;;;10.83;1.43;;;7.40;96.00;;;;;;5009772;28;20911;-54
2021/05/25 06:18:33;;;;;;;7.10;1.80;;;7.50;96.60;;;;;;5018878;28;20461;-55
2021/05/25 06:21:01;;;;;;;3.27;1.80;;;7.50;95.50;;;;;;5028101;28;20977;-55
2021/05/25 06:23:28;;;;;;;2.37;1.37;;;7.50;95.90;;;;;;5033933;28;20526;-53
2021/05/25 06:25:53;;;;;;;6.53;1.57;;;7.50;95.00;;;;;;5029599;28;20525;-54
2021/05/25 06:28:22;;;;;;;13.00;2.00;;;7.50;95.50;;;;;;5047233;28;20508;-53
2021/05/25 06:30:47;;;;;;;3.23;1.93;;;7.60;95.70;;;;;;5035232;28;20245;-56
2021/05/25 06:33:13;;;;;;;6.00;2.50;;;7.70;96.50;;;;;;5035929;28;20680;-56
2021/05/25 06:35:39;;;;;;;6.60;1.50;;;7.80;95.70;;;;;;5027737;28;20203;-53
2021/05/25 06:38:04;;;;;;;4.00;1.50;;;7.90;95.70;;;;;;5017522;28;20180;-54
2021/05/25 06:40:30;;;;;;;2.83;1.63;;;8.00;93.40;;;;;;5027952;28;20179;-55
2021/05/25 06:42:56;;;;;;;4.00;1.47;;;8.00;94.10;;;;;;5033118;28;20466;-54
2021/05/25 06:45:22;;;;;;;3.87;1.57;;;8.00;94.20;;;;;;5039231;28;21002;-53
2021/05/25 06:47:47;;;;;;;7.40;1.80;;;8.00;95.40;;;;;;5035347;28;20183;-55
2021/05/25 06:50:14;;;;;;;5.70;1.70;;;8.10;94.60;;;;;;5035289;28;20572;-54
2021/05/25 06:52:41;;;;;;;4.57;1.90;;;8.10;95.20;;;;;;5044708;28;20175;-55
2021/05/25 06:55:09;;;;;;;10.53;2.10;;;8.20;94.10;;;;;;5021614;28;20430;-53
2021/05/25 06:57:34;;;;;;;9.63;1.93;;;8.30;94.70;;;;;;5045525;28;20784;-54
2021/05/25 07:00:00;;;;;;;8.60;1.70;;;8.40;94.70;;;;;;5044465;28;20504;-54
2021/05/25 07:02:26;;;;;;;6.73;1.87;;;8.50;92.50;;;;;;5047231;28;20215;-54
2021/05/25 07:04:53;;;;;;;4.10;1.63;;;8.50;92.40;;;;;;5034548;28;20204;-54
2021/05/25 07:07:19;;;;;;;7.00;1.80;;;8.50;91.30;;;;;;5028167;28;20211;-53
2021/05/25 07:09:45;;;;;;;4.83;1.67;;;8.60;91.30;;;;;;5027308;28;20850;-54
2021/05/25 07:12:12;;;;;;;5.23;2.03;;;8.60;88.70;;;;;;5031147;28;20409;-54
2021/05/25 07:14:41;;;;;;;2.60;1.57;;;8.70;87.90;;;;;;5039897;28;20806;-54
2021/05/25 07:17:07;;;;;;;6.40;1.90;;;8.70;88.30;;;;;;5042645;28;20442;-55
2021/05/25 07:19:33;;;;;;;5.03;1.80;;;8.90;88.20;;;;;;5043059;28;20413;-54
2021/05/25 07:22:00;;;;;;;3.77;1.40;;;8.90;85.90;;;;;;5033479;28;20871;-54
2021/05/25 07:24:26;;;;;;;5.93;2.00;;;9.00;84.60;;;;;;5009013;28;20454;-54
2021/05/25 07:26:52;;;;;;;5.90;1.73;;;9.20;82.10;;;;;;5027721;28;20428;-55
2021/05/25 07:29:17;;;;;;;3.33;1.40;;;9.20;81.20;;;;;;5042830;28;20635;-54
2021/05/25 07:31:44;;;;;;;3.20;1.30;;;9.40;81.00;;;;;;5032445;28;20175;-54
2021/05/25 07:34:10;;;;;;;5.47;1.50;;;9.40;74.60;;;;;;5050967;28;20171;-54
2021/05/25 07:36:36;;;;;;;2.70;1.33;;;9.50;78.00;;;;;;5051032;28;20417;-54
2021/05/25 07:39:04;;;;;;;4.00;1.47;;;9.40;72.70;;;;;;5050321;28;20771;-54
2021/05/25 07:41:29;;;;;;;5.97;1.70;;;9.40;69.70;;;;;;5050616;28;20636;-53
2021/05/25 07:43:55;;;;;;;6.97;1.53;;;9.40;73.80;;;;;;5050457;28;20507;-54
2021/05/25 07:46:24;;;;;;;5.53;1.50;;;9.40;70.10;;;;;;5050770;28;20628;-55
2021/05/25 07:48:49;;;;;;;3.23;1.47;;;9.30;68.30;;;;;;5035117;28;20596;-55
2021/05/25 07:51:16;;;;;;;2.97;1.50;;;9.30;69.40;;;;;;5031256;28;20406;-55
2021/05/25 07:53:42;;;;;;;3.60;1.27;;;9.30;70.30;;;;;;5012964;28;20175;-55
2021/05/25 07:56:08;;;;;;;10.57;1.50;;;9.40;63.10;;;;;;5020857;28;20544;-54
2021/05/25 07:58:33;;;;;;;5.07;1.30;;;9.40;61.50;;;;;;5043215;28;20902;-55
2021/05/25 08:00:59;;;;;;;3.13;1.20;;;9.40;59.30;;;;;;5048975;28;20186;-54
2021/05/25 08:03:25;;;;;;;2.10;1.43;;;9.30;58.60;;;;;;5046456;28;20214;-55
2021/05/25 08:05:50;;;;;;;5.63;1.30;;;9.40;60.90;;;;;;5020378;28;20214;-55
2021/05/25 08:08:16;;;;;;;6.43;2.00;;;9.50;62.10;;;;;;5055202;23;20227;-58
2021/05/25 08:10:42;;;;;;;2.20;1.20;;;9.60;58.00;;;;;;5033801;28;20198;-59
2021/05/25 08:13:10;;;;;;;4.83;1.67;;;9.70;58.70;;;;;;5051301;28;20229;-59
2021/05/25 08:15:38;;;;;;;6.93;1.50;;;9.70;57.30;;;;;;5052334;28;20490;-59
2021/05/25 08:18:10;;;;;;;3.77;1.30;;;9.70;56.00;;;;;;5059683;28;20851;-58
2021/05/25 08:20:36;;;;;;;8.30;1.40;;;9.70;56.70;;;;;;5050630;28;20485;-60
2021/05/25 08:23:05;;;;;;;7.30;1.50;;;9.70;57.30;;;;;;5052663;28;20964;-60
2021/05/25 08:25:32;;;;;;;3.43;1.00;;;9.70;57.40;;;;;;5053154;28;20571;-60
2021/05/25 08:28:00;;;;;;;4.73;1.63;;;9.80;57.30;;;;;;5056591;28;20505;-59
2021/05/25 08:30:27;;;;;;;7.57;1.73;;;9.70;58.40;;;;;;5067963;28;20428;-59
2021/05/25 08:32:55;;;;;;;1.70;1.17;;;9.70;58.80;;;;;;5071694;28;20516;-59
2021/05/25 08:35:22;;;;;;;4.47;1.10;;;9.70;58.00;;;;;;5072507;28;20413;-59
2021/05/25 08:37:59;;;;;;;2.80;1.20;;;9.60;58.70;;;;;;5055067;28;20991;-58
2021/05/25 08:40:29;;;;;;;4.73;1.50;;;9.50;61.90;;;;;;5055723;28;20515;-58
2021/05/25 08:42:56;;;;;;;2.90;1.50;;;9.60;64.20;;;;;;5063516;28;21434;-61
2021/05/25 08:45:22;;;;;;;4.63;1.03;;;9.70;62.60;;;;;;5065081;28;20429;-59
2021/05/25 08:47:52;;;;;;;5.20;1.13;;;9.80;63.20;;;;;;5071069;28;20483;-60
2021/05/25 08:50:21;;;;;;;3.70;1.20;;;9.80;62.60;;;;;;5071396;28;20503;-60
2021/05/25 08:52:46;;;;;;;2.67;1.00;;;9.70;60.70;;;;;;5062195;28;20528;-59
2021/05/25 08:55:15;;;;;;;2.43;1.23;;;9.70;60.50;;;;;;5065312;28;20433;-59
2021/05/25 08:57:40;;;;;;;2.47;1.00;;;9.70;62.70;;;;;;5053254;28;20213;-61
2021/05/25 09:00:09;;;;;;;2.73;1.07;;;9.80;62.90;;;;;;5059624;28;20433;-62
2021/05/25 09:02:35;;;;;;;1.40;1.10;;;9.90;62.00;;;;;;5043738;28;20179;-60
2021/05/25 09:05:01;;;;;;;3.40;1.00;;;10.00;59.00;;;;;;5060901;28;20575;-60
2021/05/25 09:08:04;;;;;;;2.20;1.10;;;10.20;57.70;;;;;;5041901;28;20564;-61
2021/05/25 09:10:43;;;;;;;8.67;1.33;;;10.30;56.00;;;;;;5063924;28;20170;-59
2021/05/25 09:13:17;;;;;;;2.40;1.10;;;10.40;57.80;;;;;;5059970;28;20408;-60
2021/05/25 09:15:45;;;;;;;6.03;1.13;;;10.60;54.30;;;;;;5044116;28;20428;-60
2021/05/25 09:18:12;;;;;;;2.90;1.33;;;10.70;55.90;;;;;;5060232;28;21093;-60
2021/05/25 09:20:53;;;;;;;7.03;2.10;;;10.80;53.80;;;;;;5045636;28;20465;-61
2021/05/25 09:23:21;;;;;;;7.23;1.30;;;10.90;53.30;;;;;;5064940;28;20460;-61
2021/05/25 09:28:26;;;;;;;6.67;1.40;;;11.10;52.60;;;;;;5065586;28;20464;-54
2021/05/25 09:30:52;;;;;;;8.00;1.40;;;11.20;52.10;;;;;;5059788;28;20831;-53
2021/05/25 09:33:20;;;;;;;2.27;1.50;;;11.30;52.60;;;;;;5060842;28;20432;-56
2021/05/25 09:35:48;;;;;;;2.43;1.13;;;11.50;51.90;;;;;;5058427;28;20590;-56
2021/05/25 09:38:20;;;;;;;3.20;1.40;;;11.70;49.20;;;;;;5062167;28;20541;-55
2021/05/25 09:40:48;;;;;;;7.60;1.40;;;11.80;47.80;;;;;;5058387;28;20455;-54
2021/05/25 09:43:18;;;;;;;7.07;1.70;;;11.80;45.70;;;;;;5060311;28;20526;-55
2021/05/25 09:46:13;;;;;;;5.90;1.20;;;11.80;46.70;;;;;;5059184;28;20433;-57
2021/05/25 09:48:42;;;;;;;5.03;1.70;;;11.90;47.00;;;;;;5062239;28;20531;-55
2021/05/25 09:51:24;;;;;;;3.90;1.27;;;11.90;45.60;;;;;;5059752;28;20880;-57
2021/05/25 09:53:50;;;;;;;2.73;1.50;;;12.00;46.20;;;;;;5041045;28;20491;-55
2021/05/25 09:56:27;;;;;;;4.27;1.43;;;12.10;46.20;;;;;;5061776;28;20440;-61
2021/05/25 09:58:59;;;;;;;3.00;2.07;;;12.10;45.80;;;;;;5062473;28;20543;-56
2021/05/25 10:01:51;;;;;;;8.13;1.50;;;12.20;45.40;;;;;;5060510;28;20413;-55
2021/05/25 10:04:17;;;;;;;5.33;1.40;;;12.20;45.30;;;;;;5056142;28;20569;-55
2021/05/25 10:06:46;;;;;;;5.73;1.60;;;12.30;45.10;;;;;;5057474;28;20520;-54
2021/05/25 10:09:12;;;;;;;3.67;1.23;;;12.40;43.90;;;;;;5062877;28;20859;-55
2021/05/25 10:11:43;;;;;;;3.27;1.20;;;12.40;42.50;;;;;;5061988;28;21284;-55
2021/05/25 10:14:09;;;;;;;2.03;1.07;;;12.20;42.80;;;;;;5062767;28;20455;-56
2021/05/25 10:16:39;;;;;;;4.10;1.30;;;12.10;43.90;;;;;;5061724;28;20485;-56
2021/05/25 10:21:37;;;;;;;2.37;1.20;;;11.90;44.10;;;;;;5064302;28;20408;-54
2021/05/25 10:24:03;;;;;;;1.77;1.23;;;11.90;44.60;;;;;;5056787;28;20457;-58
2021/05/25 10:26:30;;;;;;;4.83;1.40;;;11.80;44.40;;;;;;5060443;28;20517;-57
2021/05/25 10:28:56;;;;;;;2.20;1.20;;;11.80;45.50;;;;;;5056481;28;20467;-59
2021/05/25 10:31:29;;;;;;;4.00;1.23;;;11.80;45.20;;;;;;5061469;28;20785;-59
2021/05/25 10:34:16;;;;;;;1.93;1.10;;;11.70;45.60;;;;;;5053045;28;20473;-60
2021/05/25 10:36:47;;;;;;;2.33;1.30;;;11.60;45.60;;;;;;5060361;28;20440;-60
2021/05/25 10:39:33;;;;;;;5.10;1.70;;;11.60;45.80;;;;;;5051407;28;20480;-60
2021/05/25 10:42:20;;;;;;;2.13;1.10;;;11.60;46.00;;;;;;5057624;28;20432;-61
2021/05/25 10:44:58;;;;;;;5.20;1.40;;;11.60;46.80;;;;;;5054834;28;20527;-60
2021/05/25 10:47:32;;;;;;;4.93;1.40;;;11.70;46.60;;;;;;5041823;28;20976;-59
2021/05/25 10:50:12;;;;;;;3.00;1.60;;;11.90;45.50;;;;;;5050539;28;20936;-58
2021/05/25 10:52:39;;;;;;;10.53;1.70;;;12.10;46.00;;;;;;5058490;28;20432;-59
2021/05/25 10:55:05;;;;;;;3.10;1.50;;;12.20;44.70;;;;;;5064528;28;20437;-60
2021/05/25 10:57:31;;;;;;;6.00;1.60;;;12.20;44.20;;;;;;5063252;28;20463;-59
2021/05/25 10:59:59;;;;;;;4.07;1.10;;;12.40;44.70;;;;;;5064868;28;21035;-58
2021/05/25 11:02:54;;;;;;;3.10;1.50;;;12.60;44.90;;;;;;5059236;28;20570;-59
2021/05/25 11:05:35;;;;;;;1.80;1.00;;;12.70;45.10;;;;;;5057787;28;21020;-59
2021/05/25 11:08:11;;;;;;;5.07;1.30;;;12.70;43.00;;;;;;5058354;28;20468;-59
2021/05/25 11:10:37;;;;;;;2.80;1.37;;;12.60;42.90;;;;;;5064600;28;20428;-59
2021/05/25 11:13:15;;;;;;;2.07;1.40;;;12.40;42.20;;;;;;5048335;28;20429;-60
2021/05/25 11:16:21;;;;;;;3.50;1.47;;;12.40;42.80;;;;;;5063942;28;20883;-60
2021/05/25 11:21:37;;;;;;;3.60;1.10;;;12.60;41.80;;;;;;5058388;28;20456;-59
2021/05/25 11:24:33;;;;;;;5.30;1.37;;;12.80;41.70;;;;;;5059805;28;20732;-59
2021/05/25 11:27:08;;;;;;;2.60;1.40;;;13.20;41.60;;;;;;5052171;28;20410;-60
2021/05/25 11:29:34;;;;;;;3.50;1.33;;;13.40;41.90;;;;;;5048622;28;20421;-60
2021/05/25 11:32:30;;;;;;;2.63;1.40;;;13.50;41.50;;;;;;5056856;28;20913;-59
2021/05/25 11:35:05;;;;;;;5.37;1.70;;;13.40;41.60;;;;;;5061743;28;20445;-60
2021/05/25 11:37:33;;;;;;;1.60;1.10;;;13.30;42.20;;;;;;5053060;28;20776;-59
2021/05/25 11:39:59;;;;;;;3.27;1.10;;;13.20;41.40;;;;;;5063004;28;20462;-60
2021/05/25 11:42:27;;;;;;;5.70;1.23;;;13.00;40.40;;;;;;5047179;28;20441;-59
2021/05/25 11:44:54;;;;;;;3.07;1.30;;;12.80;41.10;;;;;;5060927;28;20956;-59
2021/05/25 11:47:20;;;;;;;10.30;1.80;;;12.70;41.60;;;;;;5059034;28;20490;-59
2021/05/25 11:49:46;;;;;;;4.90;1.37;;;12.70;41.40;;;;;;5066333;28;20482;-60
2021/05/25 11:52:25;;;;;;;7.50;1.77;;;12.80;42.50;;;;;;5057721;28;20433;-59
2021/05/25 11:55:07;;;;;;;6.30;1.17;;;13.30;42.80;;;;;;5040079;28;20446;-59
2021/05/25 11:57:38;;;;;;;4.63;1.60;;;13.70;40.30;;;;;;5061220;28;20494;-60
2021/05/25 12:00:09;;;;;;;3.23;1.10;;;14.00;38.00;;;;;;5061148;28;20460;-59
2021/05/25 12:02:35;;;;;;;3.30;1.10;;;14.30;39.40;;;;;;5063940;28;20437;-59
2021/05/25 12:05:08;;;;;;;1.50;1.00;;;14.60;38.80;;;;;;5063958;28;20467;-60
2021/05/25 12:07:35;;;;;;;4.47;1.10;;;14.80;38.40;;;;;;5061302;28;20205;-60
2021/05/25 12:10:06;;;;;;;1.57;1.20;;;15.10;38.90;;;;;;5060278;28;20827;-60
2021/05/25 12:12:32;;;;;;;3.50;1.30;;;15.20;37.30;;;;;;5055591;28;20416;-59
2021/05/25 12:15:00;;;;;;;5.83;1.50;;;15.30;36.80;;;;;;5065570;28;20429;-59
2021/05/25 12:17:27;;;;;;;2.20;1.47;;;15.30;36.20;;;;;;5052783;28;20224;-59
2021/05/25 12:19:57;;;;;;;2.60;1.30;;;15.10;36.30;;;;;;5063209;28;20426;-59
2021/05/25 12:22:39;;;;;;;2.67;1.13;;;14.80;38.30;;;;;;5071841;28;20831;-59
2021/05/25 12:25:26;;;;;;;1.97;1.20;;;15.10;38.60;;;;;;5067464;28;20464;-60
2021/05/25 12:27:55;;;;;;;3.90;1.37;;;15.30;36.70;;;;;;5068986;28;20523;-60
2021/05/25 12:30:22;;;;;;;2.40;1.00;;;15.00;35.30;;;;;;5070098;28;20404;-60
2021/05/25 12:32:49;;;;;;;6.47;1.20;;;15.00;36.50;;;;;;5062438;28;20485;-60
2021/05/25 12:35:20;;;;;;;2.23;1.17;;;15.30;37.00;;;;;;5068322;28;20446;-59
2021/05/25 12:37:59;;;;;;;1.40;1.10;;;15.50;36.30;;;;;;5061323;28;20449;-59
2021/05/25 12:40:24;;;;;;;3.03;1.13;;;15.70;36.20;;;;;;5066079;28;20464;-61
2021/05/25 12:42:50;;;;;;;2.67;1.23;;;15.80;34.80;;;;;;5068359;28;20468;-60
2021/05/25 12:45:17;;;;;;;3.00;1.10;;;15.80;35.50;;;;;;5063947;28;20360;-59
2021/05/25 12:47:53;;;;;;;3.43;1.33;;;15.90;34.40;;;;;;5053513;28;20256;-59
2021/05/25 12:50:36;;;;;;;6.17;1.30;;;15.60;34.20;;;;;;5062245;28;20805;-59
2021/05/25 12:53:06;;;;;;;2.23;1.10;;;15.20;34.70;;;;;;5051981;28;20829;-60
2021/05/25 12:55:52;;;;;;;2.70;1.00;;;15.20;35.30;;;;;;5068217;28;20425;-59
2021/05/25 12:58:38;;;;;;;3.40;1.40;;;15.40;35.00;;;;;;5055937;28;20456;-59
2021/05/25 13:01:26;;;;;;;1.63;1.10;;;15.60;35.30;;;;;;5064974;28;20800;-59
2021/05/25 13:04:02;;;;;;;4.90;1.30;;;15.30;34.80;;;;;;5064295;28;20463;-60
2021/05/25 13:09:11;;;;;;;2.37;1.47;;;15.20;36.90;;;;;;5068556;28;20553;-60
2021/05/25 13:11:36;;;;;;;3.03;1.27;;;15.70;37.00;;;;;;5064403;28;20928;-58
2021/05/25 13:14:03;;;;;;;2.20;1.27;;;15.80;35.20;;;;;;5046647;28;20575;-60